01:44
Airports
History
Links
Donate
Help keep this website running!
PayPal
Bitcoin
This page is community maintained. The information is intended for PC simulator navigation or reference.
Always use approved charts for navigation.
EDWQ
Ganderkesee Atlas Airfield
Ganderkesee Atlas Airfield (EDWQ)
Ganderkesee, Niedersachsen, Germany (27777)
(C)
Lat/Lng:53° 2' 14.98" N / 8° 30' 21.99" E
53.037495 / 8.506109
Elevation:96'ft / 29mMSL
ID / ICAO:EDWQ
Runways:1
Longest:08-26
Asphalt 837m / 2,746ft
Controlled:Yes
Nearby Weather01:20 GMT 2017-11-23
Nearby weather at EDDW, Bremen located 11.8 nautical miles from EDWQ
Altimeter: 29.56
Visibility: 6.2 statute miles
Wind: 10 knots (from 180°)
Temp: 9°c / 48°f
Humidity: 66.0%

METAR: EDDW 230120Z 18010KT CAVOK 09/03 Q1001

(Powered by phpweather)
Airport Radio Frequencies
Tower: 118.62
Nearby VORs <50NM
Nearby NDBs
Runway 08 / 26
Dimensions:836.9 x 22m 2746' x 72'ft
Surface:Asphalt
Runway 08 [A]Runway 26 [B]
Heading:081°TH 261°TH
Lat:
Lng:
53° 2' 12.86"N
8° 29' 59.77"E
53° 2' 17.1"N
8° 30' 44.21"E
User Notes and Comments
53° 2' 14.98" N / 8° 30' 21.99" E
Distance To
Airport ID:
Nearby Airports
(C) Oldenburg Hatten 8.3 NM
EDWH WNW 284°
(C) Bremen 11.8 NM
EDDW ( WX ) E 87°
(C) Varrelbusch 21.3 NM
EDWU WSW 245°
4 Huettenbusch 25.2 NM
EDXU NE 46°
(C) Weser-Wuemme 29.2 NM
EDWM E 87°
(C) Westerstede-Felde 29.5 NM
EDWX NW 306°
(U) Karlshoefen 29.8 NM
EDWK NE 46°
VFR Chart
Flight Planning at SkyVector.com